GZMV KOMA-KMSP
Flight info
| Callsign | GZMV |
|---|---|
| Flight time | N/A |
| Altitude | 4000 |
| Route | SUX/N0195F050 RWF |
| Aircraft | BE58/L-SDFGRY/C |
Departure
| Time | 2026-04-22 05:22 |
|---|---|
| Airport | Eppley Airfield (KOMA) |
Arrival
| Time | N/A |
|---|---|
| Airport | Minneapolis–Saint Paul International Airport / Wold–Chamberlain Field (KMSP) |
| Time | Latitude | Longitude | Altitude | Speed | Heading |
|---|---|---|---|---|---|
| 2026-04-22 04:59 | 41.30990 | -95.90784 | 983 ft | 0 kts | 324° |
| 2026-04-22 05:15 | 41.30990 | -95.90786 | 983 ft | 0 kts | 283° |
| 2026-04-22 05:15 | 41.30983 | -95.90788 | 983 ft | 2 kts | 155° |
| 2026-04-22 05:15 | 41.30961 | -95.90768 | 983 ft | 4 kts | 136° |
| 2026-04-22 05:15 | 41.30947 | -95.90733 | 983 ft | 4 kts | 104° |
| 2026-04-22 05:16 | 41.30939 | -95.90687 | 983 ft | 5 kts | 99° |
| 2026-04-22 05:16 | 41.30945 | -95.90660 | 983 ft | 0 kts | 55° |
| 2026-04-22 05:17 | 41.30946 | -95.90659 | 983 ft | 0 kts | 66° |
| 2026-04-22 05:17 | 41.30946 | -95.90655 | 983 ft | 0 kts | 99° |
| 2026-04-22 05:18 | 41.30950 | -95.90643 | 983 ft | 5 kts | 46° |
| 2026-04-22 05:18 | 41.30982 | -95.90619 | 983 ft | 4 kts | 28° |
| 2026-04-22 05:18 | 41.31000 | -95.90587 | 983 ft | 3 kts | 91° |
| 2026-04-22 05:19 | 41.30991 | -95.90554 | 983 ft | 5 kts | 125° |
| 2026-04-22 05:19 | 41.30961 | -95.90505 | 983 ft | 7 kts | 100° |
| 2026-04-22 05:19 | 41.30972 | -95.90455 | 983 ft | 2 kts | 50° |
| 2026-04-22 05:19 | 41.30990 | -95.90425 | 983 ft | 6 kts | 54° |
| 2026-04-22 05:20 | 41.31005 | -95.90398 | 983 ft | 5 kts | 55° |
| 2026-04-22 05:20 | 41.31007 | -95.90394 | 983 ft | 0 kts | 54° |
| 2026-04-22 05:21 | 41.31023 | -95.90360 | 983 ft | 5 kts | 55° |
| 2026-04-22 05:21 | 41.31041 | -95.90324 | 983 ft | 7 kts | 81° |
| 2026-04-22 05:21 | 41.30992 | -95.90237 | 983 ft | 9 kts | 140° |
| 2026-04-22 05:21 | 41.30984 | -95.90228 | 983 ft | 3 kts | 141° |
| 2026-04-22 05:22 | 41.30714 | -95.89971 | 983 ft | 83 kts | 145° |
| 2026-04-22 05:22 | 41.30159 | -95.89408 | 1096 ft | 107 kts | 144° |
| 2026-04-22 05:22 | 41.29586 | -95.88759 | 1344 ft | 113 kts | 146° |
| 2026-04-22 05:22 | 41.28939 | -95.88077 | 1620 ft | 125 kts | 147° |
| 2026-04-22 05:23 | 41.28219 | -95.87396 | 1936 ft | 130 kts | 150° |
| 2026-04-22 05:23 | 41.27484 | -95.86668 | 2269 ft | 133 kts | 149° |
| 2026-04-22 05:23 | 41.26755 | -95.85892 | 2613 ft | 135 kts | 148° |
| 2026-04-22 05:23 | 41.26001 | -95.85107 | 2901 ft | 139 kts | 150° |
| 2026-04-22 05:24 | 41.25237 | -95.84333 | 3213 ft | 140 kts | 150° |
| 2026-04-22 05:24 | 41.24493 | -95.83493 | 3550 ft | 142 kts | 138° |
| 2026-04-22 05:24 | 41.24018 | -95.82283 | 3724 ft | 159 kts | 110° |
| 2026-04-22 05:24 | 41.23861 | -95.80828 | 3997 ft | 162 kts | 105° |
| 2026-04-22 05:25 | 41.23676 | -95.79314 | 4092 ft | 173 kts | 104° |
| 2026-04-22 05:25 | 41.23492 | -95.77694 | 4043 ft | 190 kts | 102° |
| 2026-04-22 05:25 | 41.23428 | -95.75890 | 4050 ft | 199 kts | 92° |
| 2026-04-22 05:25 | 41.23576 | -95.74054 | 4051 ft | 205 kts | 83° |
| 2026-04-22 05:26 | 41.24199 | -95.72353 | 3994 ft | 212 kts | 50° |
| 2026-04-22 05:26 | 41.25482 | -95.71413 | 3984 ft | 210 kts | 11° |
| 2026-04-22 05:26 | 41.26877 | -95.71619 | 3991 ft | 202 kts | 336° |
| 2026-04-22 05:26 | 41.28145 | -95.72371 | 4035 ft | 199 kts | 334° |
| 2026-04-22 05:27 | 41.29428 | -95.73123 | 4043 ft | 200 kts | 335° |
| 2026-04-22 05:27 | 41.30720 | -95.73851 | 4041 ft | 199 kts | 335° |
| 2026-04-22 05:27 | 41.31957 | -95.74540 | 4039 ft | 190 kts | 336° |
| 2026-04-22 05:27 | 41.33167 | -95.75209 | 4039 ft | 184 kts | 336° |
| 2026-04-22 05:28 | 41.34338 | -95.75855 | 4040 ft | 181 kts | 336° |
| 2026-04-22 05:28 | 41.35481 | -95.76488 | 4039 ft | 178 kts | 336° |
| 2026-04-22 05:28 | 41.36629 | -95.77123 | 4040 ft | 177 kts | 336° |
| 2026-04-22 05:28 | 41.37759 | -95.77750 | 4039 ft | 176 kts | 336° |
| 2026-04-22 05:29 | 41.38887 | -95.78375 | 4039 ft | 175 kts | 336° |
| 2026-04-22 05:29 | 41.40018 | -95.79002 | 4038 ft | 174 kts | 336° |
| 2026-04-22 05:29 | 41.41131 | -95.79620 | 4040 ft | 174 kts | 336° |
| 2026-04-22 05:29 | 41.42247 | -95.80241 | 4038 ft | 174 kts | 337° |
| 2026-04-22 05:30 | 41.43371 | -95.80865 | 4038 ft | 174 kts | 336° |
| 2026-04-22 05:30 | 41.44485 | -95.81485 | 4038 ft | 174 kts | 336° |
| 2026-04-22 05:30 | 41.45603 | -95.82107 | 4036 ft | 174 kts | 336° |
| 2026-04-22 05:30 | 41.46734 | -95.82736 | 4037 ft | 174 kts | 336° |
| 2026-04-22 05:31 | 41.47851 | -95.83357 | 4036 ft | 174 kts | 336° |
| 2026-04-22 05:31 | 41.48964 | -95.83977 | 4036 ft | 174 kts | 336° |
| 2026-04-22 05:31 | 41.50089 | -95.84603 | 4040 ft | 174 kts | 336° |
| 2026-04-22 05:31 | 41.51207 | -95.85227 | 4033 ft | 174 kts | 337° |
| 2026-04-22 05:32 | 41.52331 | -95.85854 | 4030 ft | 174 kts | 337° |
| 2026-04-22 05:32 | 41.53453 | -95.86479 | 4031 ft | 174 kts | 337° |
| 2026-04-22 05:32 | 41.54577 | -95.87106 | 4032 ft | 175 kts | 337° |
| 2026-04-22 05:32 | 41.55684 | -95.87723 | 4032 ft | 175 kts | 336° |
| 2026-04-22 05:33 | 41.56822 | -95.88359 | 4030 ft | 175 kts | 337° |
| 2026-04-22 05:33 | 41.57940 | -95.88984 | 4027 ft | 175 kts | 337° |
| 2026-04-22 05:33 | 41.59065 | -95.89612 | 4025 ft | 175 kts | 337° |
| 2026-04-22 05:33 | 41.60196 | -95.90244 | 4023 ft | 175 kts | 337° |
| 2026-04-22 05:34 | 41.61322 | -95.90874 | 4022 ft | 175 kts | 337° |
| 2026-04-22 05:34 | 41.62449 | -95.91505 | 4025 ft | 175 kts | 337° |
| 2026-04-22 05:34 | 41.63564 | -95.92128 | 4023 ft | 175 kts | 337° |
| 2026-04-22 05:34 | 41.64687 | -95.92757 | 4026 ft | 175 kts | 337° |
| 2026-04-22 05:35 | 41.65820 | -95.93398 | 4028 ft | 175 kts | 336° |
| 2026-04-22 05:35 | 41.66935 | -95.94029 | 4025 ft | 175 kts | 336° |
| 2026-04-22 05:35 | 41.68068 | -95.94667 | 4027 ft | 176 kts | 336° |
| 2026-04-22 05:35 | 41.69201 | -95.95303 | 4027 ft | 176 kts | 336° |
| 2026-04-22 05:36 | 41.70320 | -95.95931 | 4026 ft | 175 kts | 336° |
| 2026-04-22 05:36 | 41.71440 | -95.96558 | 4026 ft | 175 kts | 336° |
| 2026-04-22 05:36 | 41.72566 | -95.97190 | 4025 ft | 174 kts | 336° |
| 2026-04-22 05:36 | 41.73694 | -95.97823 | 4024 ft | 174 kts | 336° |
| 2026-04-22 05:37 | 41.74803 | -95.98447 | 4023 ft | 174 kts | 336° |
| 2026-04-22 05:37 | 41.75930 | -95.99080 | 4026 ft | 174 kts | 336° |
| 2026-04-22 05:37 | 41.77042 | -95.99704 | 4023 ft | 174 kts | 337° |
| 2026-04-22 05:37 | 41.78176 | -96.00335 | 4020 ft | 174 kts | 337° |
| 2026-04-22 05:38 | 41.79292 | -96.00950 | 4018 ft | 174 kts | 337° |
| 2026-04-22 05:38 | 41.80404 | -96.01559 | 4019 ft | 173 kts | 337° |
| 2026-04-22 05:38 | 41.81528 | -96.02181 | 4023 ft | 174 kts | 337° |
| 2026-04-22 05:38 | 41.82642 | -96.02802 | 4022 ft | 174 kts | 337° |
| 2026-04-22 05:39 | 41.83754 | -96.03424 | 4021 ft | 174 kts | 337° |
| 2026-04-22 05:39 | 41.84887 | -96.04060 | 4017 ft | 174 kts | 336° |
| 2026-04-22 05:39 | 41.85993 | -96.04682 | 4018 ft | 173 kts | 337° |
| 2026-04-22 05:39 | 41.87105 | -96.05306 | 4021 ft | 173 kts | 337° |
| 2026-04-22 05:40 | 41.88222 | -96.05934 | 4021 ft | 173 kts | 337° |
| 2026-04-22 05:40 | 41.89332 | -96.06559 | 4021 ft | 173 kts | 337° |
| 2026-04-22 05:40 | 41.90444 | -96.07186 | 4021 ft | 173 kts | 337° |
| 2026-04-22 05:40 | 41.91550 | -96.07811 | 4019 ft | 174 kts | 337° |
| 2026-04-22 05:41 | 41.92676 | -96.08447 | 4014 ft | 174 kts | 337° |
| 2026-04-22 05:41 | 41.93790 | -96.09077 | 4016 ft | 173 kts | 337° |
| 2026-04-22 05:41 | 41.94890 | -96.09699 | 4017 ft | 173 kts | 337° |
| 2026-04-22 05:41 | 41.96008 | -96.10332 | 4019 ft | 173 kts | 338° |
| 2026-04-22 05:42 | 41.97125 | -96.10963 | 4020 ft | 173 kts | 338° |
| 2026-04-22 05:42 | 41.98238 | -96.11594 | 4020 ft | 174 kts | 338° |
| 2026-04-22 05:42 | 41.99353 | -96.12225 | 4020 ft | 174 kts | 338° |
| 2026-04-22 05:42 | 42.00466 | -96.12855 | 4019 ft | 174 kts | 338° |
| 2026-04-22 05:43 | 42.01581 | -96.13487 | 4019 ft | 174 kts | 337° |
| 2026-04-22 05:43 | 42.02694 | -96.14119 | 4018 ft | 174 kts | 338° |
| 2026-04-22 05:43 | 42.03809 | -96.14751 | 4016 ft | 174 kts | 338° |
| 2026-04-22 05:43 | 42.04930 | -96.15387 | 4015 ft | 174 kts | 338° |
| 2026-04-22 05:44 | 42.06041 | -96.16018 | 4012 ft | 175 kts | 337° |
| 2026-04-22 05:44 | 42.07169 | -96.16659 | 4014 ft | 174 kts | 337° |
| 2026-04-22 05:44 | 42.08284 | -96.17293 | 4016 ft | 174 kts | 338° |
| 2026-04-22 05:44 | 42.09409 | -96.17931 | 4016 ft | 174 kts | 338° |
| 2026-04-22 05:45 | 42.10522 | -96.18565 | 4013 ft | 175 kts | 338° |
| 2026-04-22 05:45 | 42.11652 | -96.19207 | 4009 ft | 175 kts | 338° |
| 2026-04-22 05:45 | 42.12770 | -96.19843 | 4009 ft | 175 kts | 338° |
| 2026-04-22 05:45 | 42.13888 | -96.20480 | 4009 ft | 175 kts | 338° |
| 2026-04-22 05:46 | 42.15002 | -96.21114 | 4010 ft | 175 kts | 338° |
| 2026-04-22 05:46 | 42.16126 | -96.21755 | 4009 ft | 175 kts | 338° |
| 2026-04-22 05:46 | 42.17252 | -96.22397 | 4008 ft | 175 kts | 338° |
| 2026-04-22 05:46 | 42.18366 | -96.23032 | 4010 ft | 175 kts | 338° |
| 2026-04-22 05:47 | 42.19495 | -96.23676 | 4012 ft | 175 kts | 338° |
| 2026-04-22 05:47 | 42.20618 | -96.24316 | 4013 ft | 175 kts | 338° |
| 2026-04-22 05:47 | 42.21734 | -96.24953 | 4015 ft | 175 kts | 338° |
| 2026-04-22 05:47 | 42.22860 | -96.25596 | 4014 ft | 175 kts | 338° |
| 2026-04-22 05:48 | 42.23970 | -96.26230 | 4013 ft | 175 kts | 338° |
| 2026-04-22 05:48 | 42.25102 | -96.26876 | 4012 ft | 175 kts | 338° |
| 2026-04-22 05:48 | 42.26231 | -96.27490 | 4013 ft | 176 kts | 340° |
| 2026-04-22 05:48 | 42.27375 | -96.28078 | 4008 ft | 176 kts | 340° |
| 2026-04-22 05:49 | 42.28525 | -96.28671 | 4010 ft | 176 kts | 340° |
| 2026-04-22 05:49 | 42.29667 | -96.29266 | 4011 ft | 176 kts | 340° |
| 2026-04-22 05:49 | 42.30807 | -96.29863 | 4013 ft | 176 kts | 340° |
| 2026-04-22 05:49 | 42.31955 | -96.30463 | 4010 ft | 176 kts | 340° |
| 2026-04-22 05:50 | 42.33088 | -96.31061 | 4010 ft | 177 kts | 340° |
| 2026-04-22 05:50 | 42.34245 | -96.31674 | 4007 ft | 177 kts | 340° |
| 2026-04-22 05:50 | 42.35392 | -96.32282 | 4006 ft | 177 kts | 340° |
| 2026-04-22 05:50 | 42.36579 | -96.32516 | 4064 ft | 174 kts | 19° |
| 2026-04-22 05:51 | 42.37495 | -96.31579 | 4078 ft | 166 kts | 70° |
| 2026-04-22 05:51 | 42.37558 | -96.30124 | 4078 ft | 155 kts | 121° |
| 2026-04-22 05:51 | 42.36792 | -96.29241 | 4080 ft | 148 kts | 169° |
| 2026-04-22 05:51 | 42.35757 | -96.29054 | 4026 ft | 152 kts | 179° |
| 2026-04-22 05:52 | 42.34698 | -96.28952 | 4008 ft | 152 kts | 180° |
| 2026-04-22 05:52 | 42.33635 | -96.28851 | 4007 ft | 152 kts | 180° |
| 2026-04-22 05:52 | 42.32585 | -96.28746 | 4007 ft | 152 kts | 180° |
| 2026-04-22 05:52 | 42.31528 | -96.28639 | 4008 ft | 151 kts | 180° |
| 2026-04-22 05:53 | 42.30480 | -96.28534 | 4010 ft | 151 kts | 180° |
| 2026-04-22 05:53 | 42.29426 | -96.28427 | 4010 ft | 151 kts | 180° |
| 2026-04-22 05:53 | 42.28377 | -96.28320 | 4007 ft | 151 kts | 180° |
| 2026-04-22 05:53 | 42.27329 | -96.28207 | 4009 ft | 151 kts | 180° |
| 2026-04-22 05:54 | 42.26274 | -96.28117 | 4023 ft | 150 kts | 189° |
| 2026-04-22 05:54 | 42.25439 | -96.28856 | 4073 ft | 151 kts | 241° |
| 2026-04-22 05:54 | 42.25387 | -96.30272 | 4083 ft | 162 kts | 292° |
| 2026-04-22 05:54 | 42.26209 | -96.31315 | 4065 ft | 173 kts | 338° |
| 2026-04-22 05:55 | 42.27409 | -96.31729 | 4027 ft | 178 kts | 345° |
| 2026-04-22 05:55 | 42.28619 | -96.32059 | 4023 ft | 180 kts | 351° |
| 2026-04-22 05:55 | 42.29878 | -96.32246 | 4019 ft | 181 kts | 355° |
| 2026-04-22 05:55 | 42.31126 | -96.32327 | 4020 ft | 181 kts | 359° |
| 2026-04-22 05:56 | 42.32402 | -96.32340 | 4017 ft | 182 kts | 1° |
| 2026-04-22 05:56 | 42.33676 | -96.32310 | 4016 ft | 183 kts | 2° |
| 2026-04-22 05:56 | 42.34913 | -96.32016 | 4016 ft | 181 kts | 26° |
| 2026-04-22 05:56 | 42.35766 | -96.30878 | 4026 ft | 172 kts | 72° |
| 2026-04-22 05:57 | 42.35792 | -96.29356 | 4026 ft | 162 kts | 117° |
| 2026-04-22 05:57 | 42.35024 | -96.28346 | 4023 ft | 154 kts | 163° |
| 2026-04-22 05:57 | 42.33965 | -96.28197 | 4020 ft | 154 kts | 181° |
| 2026-04-22 05:57 | 42.32880 | -96.28222 | 4017 ft | 155 kts | 182° |
| 2026-04-22 05:58 | 42.31799 | -96.28256 | 4016 ft | 155 kts | 182° |
| 2026-04-22 05:58 | 42.30716 | -96.28287 | 4017 ft | 155 kts | 182° |
| 2026-04-22 05:58 | 42.29628 | -96.28317 | 4018 ft | 156 kts | 182° |
| 2026-04-22 05:58 | 42.28552 | -96.28346 | 4016 ft | 156 kts | 182° |
| 2026-04-22 05:59 | 42.27459 | -96.28371 | 4017 ft | 156 kts | 182° |
| 2026-04-22 05:59 | 42.26371 | -96.28391 | 4018 ft | 156 kts | 182° |
| 2026-04-22 05:59 | 42.25413 | -96.28957 | 4024 ft | 157 kts | 226° |
| 2026-04-22 05:59 | 42.25072 | -96.30362 | 4028 ft | 167 kts | 271° |
| 2026-04-22 06:00 | 42.25614 | -96.31759 | 4030 ft | 176 kts | 317° |
| 2026-04-22 06:00 | 42.26759 | -96.32321 | 4033 ft | 180 kts | 356° |
| 2026-04-22 06:00 | 42.28014 | -96.32431 | 4020 ft | 182 kts | 356° |
| 2026-04-22 06:00 | 42.29282 | -96.32495 | 4020 ft | 182 kts | 359° |
| 2026-04-22 06:01 | 42.30561 | -96.32498 | 4018 ft | 182 kts | 1° |
| 2026-04-22 06:01 | 42.31820 | -96.32462 | 4018 ft | 182 kts | 2° |
| 2026-04-22 06:01 | 42.33104 | -96.32401 | 4016 ft | 183 kts | 3° |
| 2026-04-22 06:01 | 42.34367 | -96.32284 | 4011 ft | 183 kts | 14° |
| 2026-04-22 06:02 | 42.35387 | -96.31358 | 4022 ft | 175 kts | 60° |
| 2026-04-22 06:02 | 42.35636 | -96.29849 | 4026 ft | 165 kts | 105° |
| 2026-04-22 06:02 | 42.35043 | -96.28635 | 4023 ft | 156 kts | 151° |
| 2026-04-22 06:02 | 42.34009 | -96.28303 | 4023 ft | 154 kts | 178° |
| 2026-04-22 06:03 | 42.32919 | -96.28304 | 4017 ft | 155 kts | 182° |
| 2026-04-22 06:03 | 42.31852 | -96.28337 | 4017 ft | 155 kts | 182° |
| 2026-04-22 06:03 | 42.30768 | -96.28370 | 4017 ft | 155 kts | 182° |
| 2026-04-22 06:03 | 42.29676 | -96.28403 | 4019 ft | 155 kts | 182° |
| 2026-04-22 06:04 | 42.28588 | -96.28436 | 4016 ft | 156 kts | 182° |
| 2026-04-22 06:04 | 42.27503 | -96.28464 | 4017 ft | 156 kts | 182° |
| 2026-04-22 06:04 | 42.26424 | -96.28488 | 4018 ft | 156 kts | 183° |
| 2026-04-22 06:04 | 42.25464 | -96.29085 | 4024 ft | 158 kts | 227° |
| 2026-04-22 06:05 | 42.25147 | -96.30488 | 4028 ft | 167 kts | 272° |
| 2026-04-22 06:05 | 42.25707 | -96.31878 | 4030 ft | 176 kts | 318° |
| 2026-04-22 06:05 | 42.26859 | -96.32400 | 4030 ft | 181 kts | 1° |
| 2026-04-22 06:05 | 42.28102 | -96.32157 | 4023 ft | 182 kts | 14° |
| 2026-04-22 06:06 | 42.29339 | -96.31730 | 4020 ft | 182 kts | 17° |
| 2026-04-22 06:06 | 42.30553 | -96.31226 | 4023 ft | 182 kts | 19° |
| 2026-04-22 06:06 | 42.31736 | -96.30683 | 4035 ft | 181 kts | 21° |
| 2026-04-22 06:06 | 42.32926 | -96.30106 | 4040 ft | 181 kts | 22° |
| 2026-04-22 06:07 | 42.34123 | -96.29505 | 4035 ft | 182 kts | 23° |
| 2026-04-22 06:07 | 42.35292 | -96.28905 | 4035 ft | 182 kts | 23° |
| 2026-04-22 06:07 | 42.36486 | -96.28285 | 4033 ft | 182 kts | 23° |
| 2026-04-22 06:07 | 42.37666 | -96.27668 | 4034 ft | 182 kts | 23° |
| 2026-04-22 06:08 | 42.38840 | -96.27051 | 4034 ft | 181 kts | 23° |
| 2026-04-22 06:08 | 42.40019 | -96.26428 | 4034 ft | 182 kts | 24° |
| 2026-04-22 06:08 | 42.41208 | -96.25800 | 4033 ft | 182 kts | 24° |
| 2026-04-22 06:08 | 42.42387 | -96.25176 | 4030 ft | 182 kts | 24° |
| 2026-04-22 06:09 | 42.43563 | -96.24552 | 4032 ft | 182 kts | 24° |
| 2026-04-22 06:09 | 42.44739 | -96.23929 | 4033 ft | 181 kts | 24° |
| 2026-04-22 06:09 | 42.45911 | -96.23307 | 4040 ft | 181 kts | 24° |
| 2026-04-22 06:09 | 42.47084 | -96.22684 | 4041 ft | 181 kts | 24° |
| 2026-04-22 06:10 | 42.48260 | -96.22059 | 4041 ft | 180 kts | 24° |
| 2026-04-22 06:10 | 42.49417 | -96.21444 | 4041 ft | 180 kts | 24° |
| 2026-04-22 06:10 | 42.50591 | -96.20819 | 4042 ft | 180 kts | 24° |
| 2026-04-22 06:10 | 42.51761 | -96.20197 | 4047 ft | 180 kts | 24° |
| 2026-04-22 06:11 | 42.52937 | -96.19571 | 4038 ft | 181 kts | 24° |
| 2026-04-22 06:11 | 42.54106 | -96.18948 | 4041 ft | 180 kts | 24° |
| 2026-04-22 06:11 | 42.55123 | -96.18407 | 4045 ft | 180 kts | 24° |
| 2026-04-22 06:11 | 42.56300 | -96.17780 | 4047 ft | 180 kts | 24° |
| 2026-04-22 06:12 | 42.57467 | -96.17158 | 4051 ft | 180 kts | 24° |
| 2026-04-22 06:12 | 42.58635 | -96.16535 | 4053 ft | 180 kts | 24° |
| 2026-04-22 06:12 | 42.59803 | -96.15912 | 4050 ft | 180 kts | 24° |
| 2026-04-22 06:12 | 42.60962 | -96.15294 | 4047 ft | 181 kts | 24° |
| 2026-04-22 06:13 | 42.62138 | -96.14666 | 4047 ft | 181 kts | 24° |
| 2026-04-22 06:13 | 42.63304 | -96.14043 | 4049 ft | 181 kts | 24° |
| 2026-04-22 06:13 | 42.64482 | -96.13415 | 4047 ft | 181 kts | 24° |
| 2026-04-22 06:13 | 42.65661 | -96.12786 | 4045 ft | 181 kts | 24° |
| 2026-04-22 06:14 | 42.66826 | -96.12163 | 4045 ft | 181 kts | 24° |
| 2026-04-22 06:14 | 42.69159 | -96.10915 | 4046 ft | 180 kts | 24° |
| 2026-04-22 06:14 | 42.70334 | -96.10287 | 4045 ft | 180 kts | 24° |
| 2026-04-22 06:15 | 42.71490 | -96.09668 | 4044 ft | 180 kts | 24° |
| 2026-04-22 06:15 | 42.72654 | -96.09045 | 4044 ft | 179 kts | 24° |
| 2026-04-22 06:15 | 42.73825 | -96.08418 | 4037 ft | 179 kts | 24° |
| 2026-04-22 06:15 | 42.74969 | -96.07804 | 4043 ft | 178 kts | 25° |
| 2026-04-22 06:16 | 42.76135 | -96.07178 | 4041 ft | 178 kts | 24° |
| 2026-04-22 06:16 | 42.77285 | -96.06561 | 4041 ft | 179 kts | 25° |
| 2026-04-22 06:16 | 42.78444 | -96.05939 | 4036 ft | 179 kts | 24° |
| 2026-04-22 06:16 | 42.79609 | -96.05313 | 4034 ft | 179 kts | 24° |
| 2026-04-22 06:17 | 42.80765 | -96.04691 | 4031 ft | 179 kts | 24° |
| 2026-04-22 06:17 | 42.81908 | -96.04078 | 4029 ft | 178 kts | 25° |
| 2026-04-22 06:17 | 42.83077 | -96.03449 | 4044 ft | 178 kts | 25° |
| 2026-04-22 06:17 | 42.84230 | -96.02827 | 4035 ft | 178 kts | 25° |
| 2026-04-22 06:18 | 42.85384 | -96.02207 | 4042 ft | 182 kts | 24° |
| 2026-04-22 06:18 | 42.86595 | -96.01559 | 4048 ft | 191 kts | 24° |
| 2026-04-22 06:18 | 42.87855 | -96.00889 | 4037 ft | 196 kts | 24° |
| 2026-04-22 06:18 | 42.89131 | -96.00209 | 4033 ft | 198 kts | 23° |
| 2026-04-22 06:19 | 42.90411 | -95.99526 | 4034 ft | 199 kts | 23° |
| 2026-04-22 06:19 | 42.91699 | -95.98835 | 4035 ft | 199 kts | 23° |
| 2026-04-22 06:19 | 42.93005 | -95.98133 | 4043 ft | 199 kts | 23° |
| 2026-04-22 06:19 | 42.94290 | -95.97440 | 4040 ft | 200 kts | 24° |
| 2026-04-22 06:20 | 42.95581 | -95.96744 | 4041 ft | 200 kts | 24° |
| 2026-04-22 06:20 | 42.96887 | -95.96040 | 4040 ft | 200 kts | 23° |
| 2026-04-22 06:20 | 42.98205 | -95.95384 | 4048 ft | 202 kts | 19° |
| 2026-04-22 06:20 | 42.99506 | -95.94696 | 4048 ft | 201 kts | 24° |
| 2026-04-22 06:21 | 43.00808 | -95.94006 | 4041 ft | 200 kts | 24° |
| 2026-04-22 06:21 | 43.02098 | -95.93274 | 4058 ft | 199 kts | 24° |
| 2026-04-22 06:21 | 43.03375 | -95.92561 | 4055 ft | 200 kts | 24° |
| 2026-04-22 06:21 | 43.04668 | -95.91849 | 4056 ft | 201 kts | 24° |
| 2026-04-22 06:22 | 43.05980 | -95.91130 | 4051 ft | 202 kts | 23° |
| 2026-04-22 06:22 | 43.07291 | -95.90417 | 4053 ft | 203 kts | 23° |
| 2026-04-22 06:22 | 43.08610 | -95.89750 | 4045 ft | 203 kts | 22° |
| 2026-04-22 06:22 | 43.09917 | -95.89027 | 4046 ft | 201 kts | 24° |
| 2026-04-22 06:23 | 43.11210 | -95.88309 | 4046 ft | 200 kts | 24° |
| 2026-04-22 06:23 | 43.12512 | -95.87590 | 4046 ft | 200 kts | 23° |
| 2026-04-22 06:23 | 43.13791 | -95.86890 | 4046 ft | 199 kts | 23° |
| 2026-04-22 06:23 | 43.15093 | -95.86178 | 4047 ft | 199 kts | 23° |
| 2026-04-22 06:24 | 43.17665 | -95.84775 | 4049 ft | 198 kts | 23° |